sensor_id;sensor_type;location;lat;lon;timestamp;pressure;altitude;pressure_sealevel;temperature;humidity
72570;BME280;60594;50.204;8.844;2024-01-30T00:01:45;101360.41;;;3.41;99.11
72570;BME280;60594;50.204;8.844;2024-01-30T00:04:30;101365.56;;;3.44;99.56
72570;BME280;60594;50.204;8.844;2024-01-30T00:07:14;101357.69;;;3.44;99.97
72570;BME280;60594;50.204;8.844;2024-01-30T00:09:59;101365.31;;;3.52;100.00
72570;BME280;60594;50.204;8.844;2024-01-30T00:12:44;101360.81;;;3.55;100.00
72570;BME280;60594;50.204;8.844;2024-01-30T00:15:29;101365.94;;;3.60;99.71
72570;BME280;60594;50.204;8.844;2024-01-30T00:18:14;101370.25;;;3.63;100.00
72570;BME280;60594;50.204;8.844;2024-01-30T00:20:58;101366.69;;;3.63;99.86
72570;BME280;60594;50.204;8.844;2024-01-30T00:23:43;101364.75;;;3.68;99.15
72570;BME280;60594;50.204;8.844;2024-01-30T00:26:28;101370.03;;;3.68;98.92
72570;BME280;60594;50.204;8.844;2024-01-30T00:29:13;101362.94;;;3.71;97.78
72570;BME280;60594;50.204;8.844;2024-01-30T00:32:04;101360.34;;;3.69;98.45
72570;BME280;60594;50.204;8.844;2024-01-30T00:34:49;101357.75;;;3.67;98.06
72570;BME280;60594;50.204;8.844;2024-01-30T00:37:34;101363.09;;;3.66;98.47
72570;BME280;60594;50.204;8.844;2024-01-30T00:40:19;101360.41;;;3.67;98.14
72570;BME280;60594;50.204;8.844;2024-01-30T00:43:05;101357.75;;;3.67;97.91
72570;BME280;60594;50.204;8.844;2024-01-30T00:45:50;101362.06;;;3.70;97.50
72570;BME280;60594;50.204;8.844;2024-01-30T00:48:36;101357.75;;;3.67;97.48
72570;BME280;60594;50.204;8.844;2024-01-30T00:51:21;101360.41;;;3.67;98.37
72570;BME280;60594;50.204;8.844;2024-01-30T00:54:06;101348.19;;;3.65;98.50
72570;BME280;60594;50.204;8.844;2024-01-30T00:56:50;101356.88;;;3.67;97.71
72570;BME280;60594;50.204;8.844;2024-01-30T00:59:35;101348.09;;;3.68;98.07
72570;BME280;60594;50.204;8.844;2024-01-30T01:02:20;101349.81;;;3.69;97.40
72570;BME280;60594;50.204;8.844;2024-01-30T01:05:05;101361.31;;;3.67;97.99
72570;BME280;60594;50.204;8.844;2024-01-30T01:07:50;101361.31;;;3.67;97.55
72570;BME280;60594;50.204;8.844;2024-01-30T01:10:36;101370.03;;;3.68;97.65
72570;BME280;60594;50.204;8.844;2024-01-30T01:13:20;101361.31;;;3.67;97.59
72570;BME280;60594;50.204;8.844;2024-01-30T01:16:05;101371.97;;;3.63;97.31
72570;BME280;60594;50.204;8.844;2024-01-30T01:18:50;101371.97;;;3.63;97.25
72570;BME280;60594;50.204;8.844;2024-01-30T01:21:35;101370.38;;;3.58;97.43
72570;BME280;60594;50.204;8.844;2024-01-30T01:24:20;101369.50;;;3.57;97.22
72570;BME280;60594;50.204;8.844;2024-01-30T01:27:05;101373.06;;;3.56;97.80
72570;BME280;60594;50.204;8.844;2024-01-30T01:29:51;101360.88;;;3.54;97.81
72570;BME280;60594;50.204;8.844;2024-01-30T01:32:36;101364.50;;;3.50;97.35
72570;BME280;60594;50.204;8.844;2024-01-30T01:35:23;101371.63;;;3.46;97.84
72570;BME280;60594;50.204;8.844;2024-01-30T01:38:12;101362.03;;;3.45;98.26
72570;BME280;60594;50.204;8.844;2024-01-30T01:40:57;101365.53;;;3.46;97.65
72570;BME280;60594;50.204;8.844;2024-01-30T01:43:42;101356.06;;;3.40;97.76
72570;BME280;60594;50.204;8.844;2024-01-30T01:46:30;101347.28;;;3.40;97.37
72570;BME280;60594;50.204;8.844;2024-01-30T01:49:15;101357.16;;;3.33;97.34
72570;BME280;60594;50.204;8.844;2024-01-30T01:52:00;101353.69;;;3.31;97.57
72570;BME280;60594;50.204;8.844;2024-01-30T01:54:45;101354.66;;;3.29;97.80
72570;BME280;60594;50.204;8.844;2024-01-30T01:57:31;101353.91;;;3.25;97.68
72570;BME280;60594;50.204;8.844;2024-01-30T02:00:17;101348.75;;;3.22;97.85
72570;BME280;60594;50.204;8.844;2024-01-30T02:03:04;101344.47;;;3.18;98.55
72570;BME280;60594;50.204;8.844;2024-01-30T02:05:50;101337.53;;;3.16;98.57
72570;BME280;60594;50.204;8.844;2024-01-30T02:08:37;101347.44;;;3.08;98.55
72570;BME280;60594;50.204;8.844;2024-01-30T02:11:23;101347.50;;;3.06;98.43
72570;BME280;60594;50.204;8.844;2024-01-30T02:14:08;101343.19;;;3.04;99.33
72570;BME280;60594;50.204;8.844;2024-01-30T02:16:53;101344.09;;;3.03;100.00
72570;BME280;60594;50.204;8.844;2024-01-30T02:19:39;101344.91;;;3.05;99.90
72570;BME280;60594;50.204;8.844;2024-01-30T02:22:24;101343.13;;;3.05;99.59
72570;BME280;60594;50.204;8.844;2024-01-30T02:25:09;101339.50;;;3.09;98.68
72570;BME280;60594;50.204;8.844;2024-01-30T02:27:54;101343.03;;;3.08;98.79
72570;BME280;60594;50.204;8.844;2024-01-30T02:30:39;101338.78;;;3.04;98.17
72570;BME280;60594;50.204;8.844;2024-01-30T02:33:24;101338.06;;;2.99;98.62
72570;BME280;60594;50.204;8.844;2024-01-30T02:36:09;101339.25;;;2.89;99.43
72570;BME280;60594;50.204;8.844;2024-01-30T02:38:54;101339.25;;;2.89;99.68
72570;BME280;60594;50.204;8.844;2024-01-30T02:41:39;101332.41;;;2.84;99.78
72570;BME280;60594;50.204;8.844;2024-01-30T02:44:24;101339.56;;;2.80;100.00
72570;BME280;60594;50.204;8.844;2024-01-30T02:47:08;101343.94;;;2.80;99.95
72570;BME280;60594;50.204;8.844;2024-01-30T02:49:53;101328.31;;;2.74;100.00
72570;BME280;60594;50.204;8.844;2024-01-30T02:52:38;101335.47;;;2.70;100.00
72570;BME280;60594;50.204;8.844;2024-01-30T02:55:23;101341.03;;;2.60;100.00
72570;BME280;60594;50.204;8.844;2024-01-30T02:58:08;101336.47;;;2.66;100.00
72570;BME280;60594;50.204;8.844;2024-01-30T03:00:53;101337.50;;;2.61;100.00
72570;BME280;60594;50.204;8.844;2024-01-30T03:03:38;101342.56;;;2.67;100.00
72570;BME280;60594;50.204;8.844;2024-01-30T03:06:26;101346.13;;;2.66;100.00
72570;BME280;60594;50.204;8.844;2024-01-30T03:09:10;101346.28;;;2.60;100.00
72570;BME280;60594;50.204;8.844;2024-01-30T03:11:55;101348.53;;;2.44;100.00
72570;BME280;60594;50.204;8.844;2024-01-30T03:14:40;101350.03;;;2.53;100.00
72570;BME280;60594;50.204;8.844;2024-01-30T03:17:24;101342.69;;;2.64;100.00
72570;BME280;60594;50.204;8.844;2024-01-30T03:20:10;101340.16;;;2.61;100.00
72570;BME280;60594;50.204;8.844;2024-01-30T03:22:55;101342.53;;;2.68;100.00
72570;BME280;60594;50.204;8.844;2024-01-30T03:25:40;101337.69;;;2.55;100.00
72570;BME280;60594;50.204;8.844;2024-01-30T03:28:26;101338.28;;;2.64;100.00
72570;BME280;60594;50.204;8.844;2024-01-30T03:31:14;101338.28;;;2.64;100.00
72570;BME280;60594;50.204;8.844;2024-01-30T03:34:00;101339.16;;;2.65;100.00
72570;BME280;60594;50.204;8.844;2024-01-30T03:36:45;101341.91;;;2.60;100.00
72570;BME280;60594;50.204;8.844;2024-01-30T03:39:30;101343.41;;;2.69;100.00
72570;BME280;60594;50.204;8.844;2024-01-30T03:42:15;101336.31;;;2.71;100.00
72570;BME280;60594;50.204;8.844;2024-01-30T03:45:01;101337.13;;;2.73;99.77
72570;BME280;60594;50.204;8.844;2024-01-30T03:47:46;101339.09;;;2.66;100.00
72570;BME280;60594;50.204;8.844;2024-01-30T03:50:31;101343.56;;;2.63;100.00
72570;BME280;60594;50.204;8.844;2024-01-30T03:53:17;101340.16;;;2.61;100.00
72570;BME280;60594;50.204;8.844;2024-01-30T03:56:02;101342.78;;;2.61;100.00
72570;BME280;60594;50.204;8.844;2024-01-30T03:58:47;101344.63;;;2.57;100.00
72570;BME280;60594;50.204;8.844;2024-01-30T04:01:32;101338.34;;;2.61;100.00
72570;BME280;60594;50.204;8.844;2024-01-30T04:04:18;101339.19;;;2.63;100.00
72570;BME280;60594;50.204;8.844;2024-01-30T04:07:03;101339.16;;;2.65;100.00
72570;BME280;60594;50.204;8.844;2024-01-30T04:09:47;101333.94;;;2.63;100.00
72570;BME280;60594;50.204;8.844;2024-01-30T04:12:33;101332.38;;;2.56;100.00
72570;BME280;60594;50.204;8.844;2024-01-30T04:15:17;101336.69;;;2.59;100.00
72570;BME280;60594;50.204;8.844;2024-01-30T04:18:03;101334.00;;;2.60;100.00
72570;BME280;60594;50.204;8.844;2024-01-30T04:20:48;101328.72;;;2.62;100.00
72570;BME280;60594;50.204;8.844;2024-01-30T04:23:33;101330.50;;;2.60;100.00
72570;BME280;60594;50.204;8.844;2024-01-30T04:26:18;101324.41;;;2.59;100.00
72570;BME280;60594;50.204;8.844;2024-01-30T04:29:03;101326.06;;;2.62;100.00
72570;BME280;60594;50.204;8.844;2024-01-30T04:31:47;101327.88;;;2.60;100.00
72570;BME280;60594;50.204;8.844;2024-01-30T04:34:33;101331.47;;;2.57;100.00
72570;BME280;60594;50.204;8.844;2024-01-30T04:37:17;101331.56;;;2.54;100.00
72570;BME280;60594;50.204;8.844;2024-01-30T04:40:03;101329.84;;;2.53;100.00
72570;BME280;60594;50.204;8.844;2024-01-30T04:42:48;101329.03;;;2.51;100.00
72570;BME280;60594;50.204;8.844;2024-01-30T04:45:33;101332.47;;;2.53;100.00
72570;BME280;60594;50.204;8.844;2024-01-30T04:48:18;101333.44;;;2.51;100.00
72570;BME280;60594;50.204;8.844;2024-01-30T04:51:04;101334.00;;;2.60;100.00
72570;BME280;60594;50.204;8.844;2024-01-30T04:53:49;101334.84;;;2.62;100.00
72570;BME280;60594;50.204;8.844;2024-01-30T04:56:34;101339.31;;;2.59;100.00
72570;BME280;60594;50.204;8.844;2024-01-30T04:59:20;101343.53;;;2.64;100.00
72570;BME280;60594;50.204;8.844;2024-01-30T05:02:05;101352.38;;;2.62;100.00
72570;BME280;60594;50.204;8.844;2024-01-30T05:04:50;101346.38;;;2.58;100.00
72570;BME280;60594;50.204;8.844;2024-01-30T05:07:36;101347.84;;;2.67;100.00
72570;BME280;60594;50.204;8.844;2024-01-30T05:10:21;101339.69;;;2.76;100.00
72570;BME280;60594;50.204;8.844;2024-01-30T05:13:06;101348.50;;;2.75;100.00
72570;BME280;60594;50.204;8.844;2024-01-30T05:15:51;101347.78;;;2.68;100.00
72570;BME280;60594;50.204;8.844;2024-01-30T05:18:36;101345.22;;;2.67;100.00
72570;BME280;60594;50.204;8.844;2024-01-30T05:21:21;101343.25;;;2.75;100.00
72570;BME280;60594;50.204;8.844;2024-01-30T05:24:06;101344.03;;;2.77;100.00
72570;BME280;60594;50.204;8.844;2024-01-30T05:26:51;101343.66;;;2.60;100.00
72570;BME280;60594;50.204;8.844;2024-01-30T05:29:36;101346.38;;;2.58;100.00
72570;BME280;60594;50.204;8.844;2024-01-30T05:32:20;101353.16;;;2.36;100.00
72570;BME280;60594;50.204;8.844;2024-01-30T05:35:06;101346.56;;;2.51;100.00
72570;BME280;60594;50.204;8.844;2024-01-30T05:37:52;101351.56;;;2.60;100.00
72570;BME280;60594;50.204;8.844;2024-01-30T05:40:37;101347.78;;;2.68;100.00
72570;BME280;60594;50.204;8.844;2024-01-30T05:43:22;101364.53;;;2.66;100.00
72570;BME280;60594;50.204;8.844;2024-01-30T05:46:06;101360.41;;;2.57;100.00
72570;BME280;60594;50.204;8.844;2024-01-30T05:48:51;101360.00;;;2.71;100.00
72570;BME280;60594;50.204;8.844;2024-01-30T05:51:36;101360.91;;;2.70;100.00
72570;BME280;60594;50.204;8.844;2024-01-30T05:54:21;101363.25;;;2.80;100.00
72570;BME280;60594;50.204;8.844;2024-01-30T05:57:06;101367.47;;;2.86;99.33
72570;BME280;60594;50.204;8.844;2024-01-30T05:59:50;101364.91;;;2.83;98.30
72570;BME280;60594;50.204;8.844;2024-01-30T06:02:36;101364.97;;;2.81;99.38
72570;BME280;60594;50.204;8.844;2024-01-30T06:05:20;101363.34;;;2.77;99.10
72570;BME280;60594;50.204;8.844;2024-01-30T06:08:06;101360.94;;;2.68;98.97
72570;BME280;60594;50.204;8.844;2024-01-30T06:10:51;101361.19;;;2.61;99.22
72570;BME280;60594;50.204;8.844;2024-01-30T06:13:36;101360.56;;;2.53;99.53
72570;BME280;60594;50.204;8.844;2024-01-30T06:16:21;101364.94;;;2.52;99.67
72570;BME280;60594;50.204;8.844;2024-01-30T06:19:07;101357.13;;;2.49;100.00
72570;BME280;60594;50.204;8.844;2024-01-30T06:21:52;101371.22;;;2.48;100.00
72570;BME280;60594;50.204;8.844;2024-01-30T06:24:37;101359.94;;;2.43;100.00
72570;BME280;60594;50.204;8.844;2024-01-30T06:27:22;101360.84;;;2.42;100.00
72570;BME280;60594;50.204;8.844;2024-01-30T06:30:08;101362.84;;;2.34;100.00
72570;BME280;60594;50.204;8.844;2024-01-30T06:32:53;101359.25;;;2.37;100.00
72570;BME280;60594;50.204;8.844;2024-01-30T06:35:38;101361.09;;;2.35;100.00
72570;BME280;60594;50.204;8.844;2024-01-30T06:38:24;101363.72;;;2.35;100.00
72570;BME280;60594;50.204;8.844;2024-01-30T06:41:10;101359.38;;;2.32;100.00
72570;BME280;60594;50.204;8.844;2024-01-30T06:43:55;101363.75;;;2.33;100.00
72570;BME280;60594;50.204;8.844;2024-01-30T06:46:41;101364.50;;;2.37;100.00
72570;BME280;60594;50.204;8.844;2024-01-30T06:49:26;101364.47;;;2.38;100.00
72570;BME280;60594;50.204;8.844;2024-01-30T06:52:11;101364.47;;;2.38;100.00
72570;BME280;60594;50.204;8.844;2024-01-30T06:54:56;101359.28;;;2.35;100.00
72570;BME280;60594;50.204;8.844;2024-01-30T06:57:40;101360.25;;;2.33;100.00
72570;BME280;60594;50.204;8.844;2024-01-30T07:00:25;101372.69;;;2.28;100.00
72570;BME280;60594;50.204;8.844;2024-01-30T07:03:10;101368.41;;;2.24;100.00
72570;BME280;60594;50.204;8.844;2024-01-30T07:05:55;101372.31;;;2.09;100.00
72570;BME280;60594;50.204;8.844;2024-01-30T07:08:40;101370.41;;;2.16;100.00
72570;BME280;60594;50.204;8.844;2024-01-30T07:11:25;101365.63;;;2.28;100.00
72570;BME280;60594;50.204;8.844;2024-01-30T07:14:10;101368.97;;;2.35;100.00
72570;BME280;60594;50.204;8.844;2024-01-30T07:16:55;101371.38;;;2.42;100.00
72570;BME280;60594;50.204;8.844;2024-01-30T07:19:40;101370.41;;;2.45;100.00
72570;BME280;60594;50.204;8.844;2024-01-30T07:22:25;101371.28;;;2.45;100.00
72570;BME280;60594;50.204;8.844;2024-01-30T07:25:09;101371.31;;;2.44;100.00
72570;BME280;60594;50.204;8.844;2024-01-30T07:27:54;101375.69;;;2.45;100.00
72570;BME280;60594;50.204;8.844;2024-01-30T07:30:40;101380.84;;;2.48;100.00
72570;BME280;60594;50.204;8.844;2024-01-30T07:33:24;101376.50;;;2.47;100.00
72570;BME280;60594;50.204;8.844;2024-01-30T07:36:09;101380.00;;;2.47;100.00
72570;BME280;60594;50.204;8.844;2024-01-30T07:38:55;101372.16;;;2.46;100.00
72570;BME280;60594;50.204;8.844;2024-01-30T07:41:40;101372.13;;;2.47;100.00
72570;BME280;60594;50.204;8.844;2024-01-30T07:44:24;101361.41;;;2.53;100.00
72570;BME280;60594;50.204;8.844;2024-01-30T07:47:09;101352.72;;;2.51;100.00
72570;BME280;60594;50.204;8.844;2024-01-30T07:49:54;101368.75;;;2.42;100.00
72570;BME280;60594;50.204;8.844;2024-01-30T07:52:39;101364.50;;;2.37;100.00
72570;BME280;60594;50.204;8.844;2024-01-30T07:55:24;101378.41;;;2.42;100.00
72570;BME280;60594;50.204;8.844;2024-01-30T07:58:12;101368.50;;;2.21;100.00
72570;BME280;60594;50.204;8.844;2024-01-30T08:00:57;101369.84;;;2.34;100.00
72570;BME280;60594;50.204;8.844;2024-01-30T08:03:43;101377.16;;;2.55;100.00
72570;BME280;60594;50.204;8.844;2024-01-30T08:06:27;101377.69;;;2.66;100.00
72570;BME280;60594;50.204;8.844;2024-01-30T08:09:12;101382.38;;;2.56;100.00
72570;BME280;60594;50.204;8.844;2024-01-30T08:11:58;101377.75;;;2.64;100.00
72570;BME280;60594;50.204;8.844;2024-01-30T08:14:42;101375.47;;;2.52;100.00
72570;BME280;60594;50.204;8.844;2024-01-30T08:17:27;101382.28;;;2.59;100.00
72570;BME280;60594;50.204;8.844;2024-01-30T08:20:12;101385.84;;;2.58;100.00
72570;BME280;60594;50.204;8.844;2024-01-30T08:22:58;101382.88;;;2.69;100.00
72570;BME280;60594;50.204;8.844;2024-01-30T08:25:45;101389.19;;;2.63;100.00
72570;BME280;60594;50.204;8.844;2024-01-30T08:28:29;101394.03;;;2.77;100.00
72570;BME280;60594;50.204;8.844;2024-01-30T08:31:14;101399.47;;;2.42;100.00
72570;BME280;60594;50.204;8.844;2024-01-30T08:33:59;101406.53;;;2.40;100.00
72570;BME280;60594;50.204;8.844;2024-01-30T08:36:44;101406.56;;;2.38;100.00
72570;BME280;60594;50.204;8.844;2024-01-30T08:39:29;101405.66;;;2.39;100.00
72570;BME280;60594;50.204;8.844;2024-01-30T08:42:15;101396.56;;;2.19;100.00
72570;BME280;60594;50.204;8.844;2024-01-30T08:45:00;101408.13;;;2.13;100.00
72570;BME280;60594;50.204;8.844;2024-01-30T08:47:45;101398.47;;;2.14;100.00
72570;BME280;60594;50.204;8.844;2024-01-30T08:50:30;101397.06;;;2.33;100.00
72570;BME280;60594;50.204;8.844;2024-01-30T08:53:15;101382.25;;;2.30;100.00
72570;BME280;60594;50.204;8.844;2024-01-30T08:55:59;101395.13;;;2.39;100.00
72570;BME280;60594;50.204;8.844;2024-01-30T08:58:45;101391.81;;;2.33;100.00
72570;BME280;60594;50.204;8.844;2024-01-30T09:01:29;101396.88;;;2.40;100.00
72570;BME280;60594;50.204;8.844;2024-01-30T09:04:15;101397.75;;;2.39;100.00
72570;BME280;60594;50.204;8.844;2024-01-30T09:07:00;101404.66;;;2.43;100.00
72570;BME280;60594;50.204;8.844;2024-01-30T09:09:45;101409.31;;;2.34;100.00
72570;BME280;60594;50.204;8.844;2024-01-30T09:12:30;101412.84;;;2.33;100.00
72570;BME280;60594;50.204;8.844;2024-01-30T09:15:15;101406.59;;;2.37;100.00
72570;BME280;60594;50.204;8.844;2024-01-30T09:18:00;101396.72;;;2.45;100.00
72570;BME280;60594;50.204;8.844;2024-01-30T09:20:45;101400.25;;;2.44;100.00
72570;BME280;60594;50.204;8.844;2024-01-30T09:23:32;101400.09;;;2.50;100.00
72570;BME280;60594;50.204;8.844;2024-01-30T09:26:17;101407.97;;;2.51;100.00
72570;BME280;60594;50.204;8.844;2024-01-30T09:29:02;101406.09;;;2.55;100.00
72570;BME280;60594;50.204;8.844;2024-01-30T09:31:47;101405.66;;;2.70;100.00
72570;BME280;60594;50.204;8.844;2024-01-30T09:34:32;101407.00;;;2.84;100.00
72570;BME280;60594;50.204;8.844;2024-01-30T09:37:17;101404.44;;;2.81;100.00
72570;BME280;60594;50.204;8.844;2024-01-30T09:40:03;101406.41;;;3.02;100.00
72570;BME280;60594;50.204;8.844;2024-01-30T09:42:50;101409.88;;;3.32;100.00
72570;BME280;60594;50.204;8.844;2024-01-30T09:45:35;101405.63;;;3.28;100.00
72570;BME280;60594;50.204;8.844;2024-01-30T09:48:21;101410.44;;;3.14;100.00
72570;BME280;60594;50.204;8.844;2024-01-30T09:51:07;101414.75;;;3.16;100.00
72570;BME280;60594;50.204;8.844;2024-01-30T09:53:54;101420.47;;;3.30;100.00
72570;BME280;60594;50.204;8.844;2024-01-30T09:56:39;101419.56;;;3.31;100.00
72570;BME280;60594;50.204;8.844;2024-01-30T09:59:24;101410.13;;;3.24;100.00
72570;BME280;60594;50.204;8.844;2024-01-30T10:02:10;101407.59;;;3.21;100.00
72570;BME280;60594;50.204;8.844;2024-01-30T10:04:55;101410.03;;;3.27;100.00
72570;BME280;60594;50.204;8.844;2024-01-30T10:07:50;101399.88;;;3.43;100.00
72570;BME280;60594;50.204;8.844;2024-01-30T10:10:35;101402.31;;;3.49;100.00
72570;BME280;60594;50.204;8.844;2024-01-30T10:13:20;101399.47;;;3.55;100.00
72570;BME280;60594;50.204;8.844;2024-01-30T10:16:06;101390.16;;;3.71;100.00
72570;BME280;60594;50.204;8.844;2024-01-30T10:18:51;101409.19;;;3.81;100.00
72570;BME280;60594;50.204;8.844;2024-01-30T10:21:37;101410.84;;;3.83;100.00
72570;BME280;60594;50.204;8.844;2024-01-30T10:24:25;101400.94;;;3.90;100.00
72570;BME280;60594;50.204;8.844;2024-01-30T10:27:10;101394.06;;;4.10;100.00
72570;BME280;60594;50.204;8.844;2024-01-30T10:29:55;101400.91;;;4.16;100.00
72570;BME280;60594;50.204;8.844;2024-01-30T10:32:40;101385.53;;;4.04;100.00
72570;BME280;60594;50.204;8.844;2024-01-30T10:35:25;101384.19;;;3.91;100.00
72570;BME280;60594;50.204;8.844;2024-01-30T10:38:13;101381.22;;;4.01;100.00
72570;BME280;60594;50.204;8.844;2024-01-30T10:41:01;101385.13;;;4.14;100.00
72570;BME280;60594;50.204;8.844;2024-01-30T10:44:03;101385.97;;;4.16;100.00
72570;BME280;60594;50.204;8.844;2024-01-30T10:46:58;101391.97;;;4.20;100.00
72570;BME280;60594;50.204;8.844;2024-01-30T10:49:45;101391.28;;;4.15;100.00
72570;BME280;60594;50.204;8.844;2024-01-30T10:52:32;101377.13;;;4.17;100.00
72570;BME280;60594;50.204;8.844;2024-01-30T10:55:18;101385.13;;;4.14;100.00
72570;BME280;60594;50.204;8.844;2024-01-30T10:58:03;101381.91;;;4.06;100.00
72570;BME280;60594;50.204;8.844;2024-01-30T11:00:49;101379.50;;;4.25;100.00
72570;BME280;60594;50.204;8.844;2024-01-30T11:03:35;101382.13;;;4.25;100.00
72570;BME280;60594;50.204;8.844;2024-01-30T11:06:27;101387.22;;;4.29;100.00
72570;BME280;60594;50.204;8.844;2024-01-30T11:09:12;101379.09;;;4.35;100.00
72570;BME280;60594;50.204;8.844;2024-01-30T11:11:58;101392.25;;;4.37;100.00
72570;BME280;60594;50.204;8.844;2024-01-30T11:14:44;101386.56;;;4.47;100.00
72570;BME280;60594;50.204;8.844;2024-01-30T11:20:30;101399.72;;;4.72;100.00
72570;BME280;60594;50.204;8.844;2024-01-30T11:23:22;101408.00;;;4.86;100.00
72570;BME280;60594;50.204;8.844;2024-01-30T11:26:10;101404.56;;;4.84;100.00
72570;BME280;60594;50.204;8.844;2024-01-30T11:28:55;101379.78;;;4.88;100.00
72570;BME280;60594;50.204;8.844;2024-01-30T11:31:40;101379.22;;;5.01;100.00
72570;BME280;60594;50.204;8.844;2024-01-30T11:34:41;101375.75;;;5.22;100.00
72570;BME280;60594;50.204;8.844;2024-01-30T11:37:26;101366.91;;;5.45;100.00
72570;BME280;60594;50.204;8.844;2024-01-30T11:40:12;101379.69;;;5.55;100.00
72570;BME280;60594;50.204;8.844;2024-01-30T11:42:58;101377.72;;;5.60;100.00
72570;BME280;60594;50.204;8.844;2024-01-30T11:45:44;101382.44;;;5.74;100.00
72570;BME280;60594;50.204;8.844;2024-01-30T11:48:30;101370.06;;;5.96;100.00
72570;BME280;60594;50.204;8.844;2024-01-30T11:51:14;101369.53;;;6.08;99.64
72570;BME280;60594;50.204;8.844;2024-01-30T11:54:00;101357.09;;;6.10;99.10
72570;BME280;60594;50.204;8.844;2024-01-30T11:56:45;101360.13;;;6.01;99.61
72570;BME280;60594;50.204;8.844;2024-01-30T11:59:29;101356.22;;;6.09;100.00
72570;BME280;60594;50.204;8.844;2024-01-30T12:02:18;101341.28;;;6.08;99.41
72570;BME280;60594;50.204;8.844;2024-01-30T12:05:06;101350.00;;;6.10;99.48
72570;BME280;60594;50.204;8.844;2024-01-30T12:07:52;101340.41;;;6.28;99.84
72570;BME280;60594;50.204;8.844;2024-01-30T12:10:36;101333.72;;;6.58;96.58
72570;BME280;60594;50.204;8.844;2024-01-30T12:13:22;101323.19;;;6.75;96.15
72570;BME280;60594;50.204;8.844;2024-01-30T12:16:06;101332.28;;;6.69;94.46
72570;BME280;60594;50.204;8.844;2024-01-30T12:18:59;101330.47;;;6.90;95.15
72570;BME280;60594;50.204;8.844;2024-01-30T12:21:45;101338.16;;;6.94;95.33
72570;BME280;60594;50.204;8.844;2024-01-30T12:24:30;101335.31;;;6.99;94.85
72570;BME280;60594;50.204;8.844;2024-01-30T12:27:15;101333.34;;;7.02;95.42
72570;BME280;60594;50.204;8.844;2024-01-30T12:30:00;101323.97;;;7.14;96.04
72570;BME280;60594;50.204;8.844;2024-01-30T12:32:48;101327.91;;;7.24;94.35
72570;BME280;60594;50.204;8.844;2024-01-30T12:35:34;101323.09;;;7.32;93.78
72570;BME280;60594;50.204;8.844;2024-01-30T12:38:19;101328.00;;;7.40;93.21
72570;BME280;60594;50.204;8.844;2024-01-30T12:41:04;101326.47;;;7.53;92.56
72570;BME280;60594;50.204;8.844;2024-01-30T12:43:51;101323.41;;;7.43;92.86
72570;BME280;60594;50.204;8.844;2024-01-30T12:46:36;101325.13;;;7.44;92.60
72570;BME280;60594;50.204;8.844;2024-01-30T12:49:21;101315.59;;;7.40;92.71
72570;BME280;60594;50.204;8.844;2024-01-30T12:52:06;101322.25;;;7.49;92.39
72570;BME280;60594;50.204;8.844;2024-01-30T12:54:51;101315.94;;;7.51;92.30
72570;BME280;60594;50.204;8.844;2024-01-30T12:57:37;101300.81;;;7.53;92.30
72570;BME280;60594;50.204;8.844;2024-01-30T13:00:24;101311.09;;;7.59;92.40
72570;BME280;60594;50.204;8.844;2024-01-30T13:03:09;101307.22;;;7.66;91.75
72570;BME280;60594;50.204;8.844;2024-01-30T13:05:55;101311.50;;;7.86;90.69
72570;BME280;60594;50.204;8.844;2024-01-30T13:08:40;101304.56;;;7.83;91.09
72570;BME280;60594;50.204;8.844;2024-01-30T13:11:25;101305.31;;;7.85;90.38
72570;BME280;60594;50.204;8.844;2024-01-30T13:14:11;101299.09;;;7.86;90.40
72570;BME280;60594;50.204;8.844;2024-01-30T13:16:56;101294.09;;;7.80;90.96
72570;BME280;60594;50.204;8.844;2024-01-30T13:19:41;101301.13;;;7.81;90.56
72570;BME280;60594;50.204;8.844;2024-01-30T13:22:26;101295.72;;;7.83;91.03
72570;BME280;60594;50.204;8.844;2024-01-30T13:25:11;101296.47;;;7.86;90.80
72570;BME280;60594;50.204;8.844;2024-01-30T13:27:56;101296.47;;;7.86;91.34
72570;BME280;60594;50.204;8.844;2024-01-30T13:30:41;101300.97;;;8.01;90.82
72570;BME280;60594;50.204;8.844;2024-01-30T13:33:26;101292.66;;;8.07;89.96
72570;BME280;60594;50.204;8.844;2024-01-30T13:36:11;101295.31;;;8.07;89.33
72570;BME280;60594;50.204;8.844;2024-01-30T13:38:56;101293.06;;;8.00;88.81
72570;BME280;60594;50.204;8.844;2024-01-30T13:41:42;101287.06;;;7.96;89.21
72570;BME280;60594;50.204;8.844;2024-01-30T13:44:27;101289.72;;;7.96;89.63
72570;BME280;60594;50.204;8.844;2024-01-30T13:47:12;101300.25;;;7.98;89.39
72570;BME280;60594;50.204;8.844;2024-01-30T13:49:57;101299.22;;;8.00;89.78
72570;BME280;60594;50.204;8.844;2024-01-30T13:52:43;101299.34;;;7.99;89.90
72570;BME280;60594;50.204;8.844;2024-01-30T13:55:30;101290.03;;;7.90;89.43
72570;BME280;60594;50.204;8.844;2024-01-30T13:58:15;101285.13;;;7.83;91.20
72570;BME280;60594;50.204;8.844;2024-01-30T14:01:00;101292.63;;;7.92;90.65
72570;BME280;60594;50.204;8.844;2024-01-30T14:03:45;101302.75;;;8.01;89.73
72570;BME280;60594;50.204;8.844;2024-01-30T14:06:30;101299.41;;;7.97;89.27
72570;BME280;60594;50.204;8.844;2024-01-30T14:09:16;101306.00;;;8.06;88.62
72570;BME280;60594;50.204;8.844;2024-01-30T14:12:01;101305.19;;;8.05;89.27
72570;BME280;60594;50.204;8.844;2024-01-30T14:14:46;101311.47;;;8.20;89.39
72570;BME280;60594;50.204;8.844;2024-01-30T14:17:30;101311.53;;;8.18;89.37
72570;BME280;60594;50.204;8.844;2024-01-30T14:20:16;101311.16;;;8.09;89.55
72570;BME280;60594;50.204;8.844;2024-01-30T14:23:03;101313.91;;;8.07;89.81
72570;BME280;60594;50.204;8.844;2024-01-30T14:25:49;101318.38;;;8.07;90.04
72570;BME280;60594;50.204;8.844;2024-01-30T14:28:35;101317.28;;;8.11;89.92
72570;BME280;60594;50.204;8.844;2024-01-30T14:31:21;101324.22;;;8.13;89.77
72570;BME280;60594;50.204;8.844;2024-01-30T14:34:06;101318.75;;;8.16;89.49